createdAt,value
2023-05-19T00:00:53.274Z,111.55
2023-05-19T00:01:53.314Z,107.54
2023-05-19T00:02:53.377Z,107.87
2023-05-19T00:03:53.309Z,107.61
2023-05-19T00:04:53.334Z,106.60
2023-05-19T00:05:53.381Z,104.85
2023-05-19T00:06:53.356Z,106.54
2023-05-19T00:07:53.355Z,110.81
2023-05-19T00:08:53.366Z,107.28
2023-05-19T00:09:53.377Z,104.82
2023-05-19T00:10:53.390Z,107.72
2023-05-19T00:11:53.407Z,109.34
2023-05-19T00:12:54.230Z,104.99
2023-05-19T00:13:54.240Z,106.67
2023-05-19T00:14:53.438Z,109.09
2023-05-19T00:15:53.482Z,110.31
2023-05-19T00:16:53.541Z,106.37
2023-05-19T00:17:53.532Z,105.92
2023-05-19T00:18:54.236Z,106.61
2023-05-19T00:19:53.590Z,109.68
2023-05-19T00:20:53.525Z,104.69
2023-05-19T00:21:53.548Z,109.31
2023-05-19T00:22:53.616Z,109.90
2023-05-19T00:23:53.573Z,106.48
2023-05-19T00:24:53.594Z,106.31
2023-05-19T00:25:53.605Z,108.02
2023-05-19T00:26:54.180Z,109.92
2023-05-19T00:27:53.631Z,107.77
2023-05-19T00:28:53.648Z,105.01
2023-05-19T00:29:53.662Z,108.51
2023-05-19T00:30:54.170Z,107.70
2023-05-19T00:31:53.888Z,106.53
2023-05-19T00:32:53.752Z,105.24
2023-05-19T00:33:53.714Z,109.93
2023-05-19T00:34:53.711Z,108.92
2023-05-19T00:35:53.740Z,109.36
2023-05-19T00:36:53.747Z,107.95
2023-05-19T00:37:53.755Z,105.17
2023-05-19T00:38:53.761Z,106.83
2023-05-19T00:39:53.774Z,109.55
2023-05-19T00:40:53.782Z,106.14
2023-05-19T00:41:53.795Z,106.77
2023-05-19T00:42:53.801Z,107.08
2023-05-19T00:43:53.819Z,106.36
2023-05-19T00:44:53.822Z,109.31
2023-05-19T00:45:53.842Z,105.62
2023-05-19T00:46:53.904Z,109.51
2023-05-19T00:47:53.936Z,104.76
2023-05-19T00:48:53.871Z,109.22
2023-05-19T00:49:53.884Z,107.30
2023-05-19T00:50:53.894Z,107.39
2023-05-19T00:51:53.919Z,109.25
2023-05-19T00:52:53.917Z,107.57
2023-05-19T00:53:53.930Z,109.75
2023-05-19T00:54:53.949Z,108.15
2023-05-19T00:55:53.962Z,105.59
2023-05-19T00:56:53.980Z,106.93
2023-05-19T00:57:53.992Z,105.48
2023-05-19T00:58:54.007Z,108.85
2023-05-19T00:59:54.018Z,108.53
2023-05-19T01:00:54.096Z,106.57
2023-05-19T01:01:54.044Z,108.23
2023-05-19T01:02:54.173Z,108.99
2023-05-19T01:03:54.143Z,106.92
2023-05-19T01:04:54.064Z,107.37
2023-05-19T01:05:54.084Z,107.72
2023-05-19T01:06:54.106Z,107.08
2023-05-19T01:07:54.121Z,106.16
2023-05-19T01:08:54.134Z,105.73
2023-05-19T01:09:54.149Z,108.26
2023-05-19T01:10:54.164Z,110.05
2023-05-19T01:11:54.172Z,108.70
2023-05-19T01:12:54.222Z,105.59
2023-05-19T01:13:54.203Z,105.22
2023-05-19T01:14:54.223Z,106.44
2023-05-19T01:15:54.221Z,105.69
2023-05-19T01:16:54.348Z,106.36
2023-05-19T01:17:54.294Z,107.05
2023-05-19T01:18:54.286Z,106.36
2023-05-19T01:19:54.265Z,109.85
2023-05-19T01:20:54.274Z,107.85
2023-05-19T01:21:54.295Z,106.61
2023-05-19T01:22:55.250Z,104.08
2023-05-19T01:23:54.290Z,106.38
2023-05-19T01:24:54.314Z,105.95
2023-05-19T01:25:54.317Z,104.89
2023-05-19T01:26:54.322Z,103.99
2023-05-19T01:27:54.333Z,105.72
2023-05-19T01:28:54.341Z,103.78
2023-05-19T01:29:54.351Z,104.44
2023-05-19T01:30:54.372Z,104.80
2023-05-19T01:31:54.560Z,103.11
2023-05-19T01:32:54.418Z,103.26
2023-05-19T01:33:54.383Z,104.71
2023-05-19T01:34:54.391Z,104.51
2023-05-19T01:35:54.467Z,103.35
2023-05-19T01:36:54.393Z,101.24
2023-05-19T01:37:54.404Z,102.26
2023-05-19T01:38:54.412Z,106.27
2023-05-19T01:39:54.418Z,106.06
2023-05-19T01:40:54.429Z,102.88
2023-05-19T01:41:54.439Z,104.57
2023-05-19T01:42:55.585Z,99.71
2023-05-19T01:43:54.429Z,102.75
2023-05-19T01:44:54.433Z,104.23
2023-05-19T01:45:54.475Z,102.09
2023-05-19T01:46:54.417Z,100.98
2023-05-19T01:47:54.526Z,98.67
2023-05-19T01:48:54.402Z,100.92
2023-05-19T01:49:54.389Z,97.52
2023-05-19T01:50:54.378Z,101.39
2023-05-19T01:51:54.385Z,102.84
2023-05-19T01:52:54.367Z,101.47
2023-05-19T01:53:54.453Z,102.40
2023-05-19T01:54:54.358Z,101.15
2023-05-19T01:55:54.347Z,99.12
2023-05-19T01:56:54.408Z,98.56
2023-05-19T01:57:54.334Z,100.56
2023-05-19T01:58:54.316Z,101.03
2023-05-19T01:59:54.317Z,102.14
2023-05-19T02:00:54.345Z,100.87
2023-05-19T02:01:54.297Z,98.16
2023-05-19T02:02:54.315Z,96.83
2023-05-19T02:03:54.333Z,103.12
2023-05-19T02:04:54.350Z,101.50
2023-05-19T02:05:54.265Z,98.50
2023-05-19T02:06:54.274Z,97.70
2023-05-19T02:07:54.268Z,100.11
2023-05-19T02:08:54.259Z,98.92
2023-05-19T02:09:54.262Z,99.16
2023-05-19T02:10:54.273Z,100.36
2023-05-19T02:11:54.711Z,102.34
2023-05-19T02:12:54.261Z,99.00
2023-05-19T02:13:54.236Z,100.47
2023-05-19T02:14:54.210Z,97.48
2023-05-19T02:15:54.252Z,98.87
2023-05-19T02:16:54.203Z,98.09
2023-05-19T02:17:54.237Z,97.76
2023-05-19T02:18:54.237Z,100.14
2023-05-19T02:19:54.182Z,97.89
2023-05-19T02:20:54.163Z,98.95
2023-05-19T02:21:54.181Z,102.28
2023-05-19T02:22:54.332Z,98.24
2023-05-19T02:23:54.131Z,100.42
2023-05-19T02:24:54.137Z,96.90
2023-05-19T02:25:54.144Z,99.76
2023-05-19T02:26:54.167Z,97.73
2023-05-19T02:27:54.702Z,94.60
2023-05-19T02:28:54.750Z,98.14
2023-05-19T02:29:54.088Z,94.54
2023-05-19T02:30:54.084Z,99.01
2023-05-19T02:31:54.145Z,95.71
2023-05-19T02:32:54.163Z,95.81
2023-05-19T02:33:54.044Z,100.62
2023-05-19T02:34:54.033Z,97.89
2023-05-19T02:35:54.081Z,93.89
2023-05-19T02:36:54.007Z,97.48
2023-05-19T02:37:54.005Z,97.92
2023-05-19T02:38:53.990Z,93.95
2023-05-19T02:39:53.966Z,94.23
2023-05-19T02:40:53.968Z,97.89
2023-05-19T02:41:54.076Z,95.75
2023-05-19T02:42:53.949Z,96.06
2023-05-19T02:43:53.944Z,92.95
2023-05-19T02:44:53.938Z,95.09
2023-05-19T02:45:53.951Z,96.02
2023-05-19T02:46:53.954Z,98.22
2023-05-19T02:47:53.896Z,94.74
2023-05-19T02:48:53.874Z,93.90
2023-05-19T02:49:53.872Z,95.06
2023-05-19T02:50:53.872Z,93.20
2023-05-19T02:51:53.860Z,94.28
2023-05-19T02:52:53.845Z,94.08
2023-05-19T02:53:53.901Z,92.06
2023-05-19T02:54:53.828Z,95.10
2023-05-19T02:55:53.818Z,94.07
2023-05-19T02:56:53.805Z,96.24
2023-05-19T02:57:53.794Z,94.33
2023-05-19T02:58:53.791Z,96.56
2023-05-19T02:59:53.772Z,95.47
2023-05-19T03:00:53.842Z,93.73
2023-05-19T03:01:53.830Z,93.17
2023-05-19T03:02:53.773Z,91.79
2023-05-19T03:03:53.771Z,92.49
2023-05-19T03:04:53.699Z,96.32
2023-05-19T03:05:53.773Z,93.97
2023-05-19T03:06:53.677Z,95.27
2023-05-19T03:07:53.661Z,91.46
2023-05-19T03:08:53.645Z,93.36
2023-05-19T03:09:53.655Z,95.19
2023-05-19T03:10:53.614Z,95.31
2023-05-19T03:11:53.604Z,94.80
2023-05-19T03:12:53.591Z,92.57
2023-05-19T03:13:53.577Z,95.23
2023-05-19T03:14:53.569Z,95.98
2023-05-19T03:15:53.600Z,96.85
2023-05-19T03:16:53.709Z,93.05
2023-05-19T03:17:53.594Z,95.96
2023-05-19T03:18:53.566Z,92.98
2023-05-19T03:19:53.509Z,94.11
2023-05-19T03:20:53.566Z,97.01
2023-05-19T03:21:53.489Z,93.72
2023-05-19T03:22:53.471Z,95.19
2023-05-19T03:23:53.467Z,95.80
2023-05-19T03:24:53.453Z,93.64
2023-05-19T03:25:53.455Z,96.40
2023-05-19T03:26:53.439Z,88.68
2023-05-19T03:27:53.424Z,92.44
2023-05-19T03:28:53.420Z,92.74
2023-05-19T03:29:53.471Z,95.65
2023-05-19T03:30:53.403Z,93.88
2023-05-19T03:31:53.394Z,93.21
2023-05-19T03:32:53.406Z,94.35
2023-05-19T03:33:53.360Z,97.04
2023-05-19T03:34:53.348Z,92.46
2023-05-19T03:35:53.344Z,96.53
2023-05-19T03:36:53.332Z,94.19
2023-05-19T03:37:53.371Z,93.69
2023-05-19T03:38:53.321Z,95.04
2023-05-19T03:39:53.313Z,95.80
2023-05-19T03:40:53.323Z,90.26
2023-05-19T03:41:53.300Z,92.81
2023-05-19T03:42:53.282Z,93.12
2023-05-19T03:43:53.280Z,91.60
2023-05-19T03:44:53.271Z,91.68
2023-05-19T03:45:53.281Z,91.83
2023-05-19T03:46:53.251Z,89.77
2023-05-19T03:47:53.399Z,90.71
2023-05-19T03:48:53.245Z,88.59
2023-05-19T03:49:53.224Z,93.00
2023-05-19T03:50:53.220Z,91.47
2023-05-19T03:51:53.220Z,91.53
2023-05-19T03:52:53.197Z,91.29
2023-05-19T03:53:53.194Z,90.74
2023-05-19T03:54:53.172Z,91.54
2023-05-19T03:55:53.167Z,94.55
2023-05-19T03:56:53.157Z,97.68
2023-05-19T03:57:53.146Z,90.00
2023-05-19T03:58:53.131Z,91.42
2023-05-19T03:59:53.167Z,91.89
2023-05-19T04:00:53.103Z,92.14
2023-05-19T04:01:53.146Z,89.39
2023-05-19T04:02:53.124Z,90.70
2023-05-19T04:03:53.057Z,90.73
2023-05-19T04:04:53.130Z,93.56
2023-05-19T04:05:53.039Z,94.18
2023-05-19T04:06:53.035Z,89.39
2023-05-19T04:07:53.026Z,89.86
2023-05-19T04:08:53.010Z,91.30
2023-05-19T04:09:52.991Z,90.73
2023-05-19T04:10:52.990Z,90.74
2023-05-19T04:11:52.983Z,90.09
2023-05-19T04:12:52.979Z,87.91
2023-05-19T04:13:52.964Z,91.70
2023-05-19T04:14:52.950Z,88.31
2023-05-19T04:15:53.032Z,93.61
2023-05-19T04:16:52.917Z,89.21
2023-05-19T04:17:52.927Z,91.96
2023-05-19T04:18:52.926Z,92.39
2023-05-19T04:19:52.892Z,92.59
2023-05-19T04:20:52.881Z,89.84
2023-05-19T04:21:52.887Z,89.18
2023-05-19T04:22:52.868Z,92.22
2023-05-19T04:23:52.903Z,92.16
2023-05-19T04:24:52.932Z,90.73
2023-05-19T04:25:53.260Z,90.96
2023-05-19T04:26:52.844Z,92.77
2023-05-19T04:27:52.836Z,93.21
2023-05-19T04:28:52.824Z,88.52
2023-05-19T04:29:52.814Z,93.05
2023-05-19T04:30:52.839Z,94.30
2023-05-19T04:31:52.804Z,91.18
2023-05-19T04:32:52.817Z,91.51
2023-05-19T04:33:52.785Z,91.71
2023-05-19T04:34:52.780Z,89.09
2023-05-19T04:35:52.768Z,92.46
2023-05-19T04:36:53.575Z,91.88
2023-05-19T04:37:52.764Z,90.40
2023-05-19T04:38:52.788Z,92.99
2023-05-19T04:39:52.751Z,91.76
2023-05-19T04:40:52.734Z,92.75
2023-05-19T04:41:52.730Z,91.48
2023-05-19T04:42:52.721Z,92.03
2023-05-19T04:43:52.718Z,87.20
2023-05-19T04:44:52.713Z,87.68
2023-05-19T04:45:52.732Z,93.10
2023-05-19T04:46:52.739Z,87.43
2023-05-19T04:47:52.797Z,90.08
2023-05-19T04:48:52.675Z,91.53
2023-05-19T04:49:52.722Z,89.69
2023-05-19T04:50:52.728Z,88.38
2023-05-19T04:51:55.543Z,90.13
2023-05-19T04:52:52.655Z,91.68
2023-05-19T04:53:52.719Z,90.84
2023-05-19T04:54:52.636Z,92.23
2023-05-19T04:55:53.262Z,90.53
2023-05-19T04:56:52.685Z,89.56
2023-05-19T04:57:52.620Z,87.57
2023-05-19T04:58:52.631Z,89.76
2023-05-19T04:59:52.624Z,91.88
2023-05-19T05:00:52.661Z,89.35
2023-05-19T05:01:52.702Z,89.23
2023-05-19T05:02:52.745Z,89.95
2023-05-19T05:03:52.630Z,87.27
2023-05-19T05:04:53.268Z,88.90
2023-05-19T05:05:52.591Z,90.32
2023-05-19T05:06:52.585Z,87.41
2023-05-19T05:07:52.574Z,87.91
2023-05-19T05:08:52.648Z,91.93
2023-05-19T05:09:52.567Z,87.77
2023-05-19T05:10:52.558Z,86.53
2023-05-19T05:11:52.565Z,88.45
2023-05-19T05:12:52.551Z,87.58
2023-05-19T05:13:52.547Z,89.67
2023-05-19T05:14:52.548Z,86.01
2023-05-19T05:15:52.599Z,87.72
2023-05-19T05:16:52.563Z,88.91
2023-05-19T05:17:52.573Z,85.66
2023-05-19T05:18:52.547Z,85.86
2023-05-19T05:19:52.513Z,85.95
2023-05-19T05:20:52.513Z,85.15
2023-05-19T05:21:52.510Z,87.39
2023-05-19T05:22:52.499Z,89.78
2023-05-19T05:23:52.503Z,85.94
2023-05-19T05:24:52.477Z,85.78
2023-05-19T05:25:52.476Z,87.52
2023-05-19T05:26:52.467Z,87.14
2023-05-19T05:27:52.501Z,87.26
2023-05-19T05:28:53.267Z,85.22
2023-05-19T05:29:52.444Z,86.28
2023-05-19T05:30:52.432Z,86.96
2023-05-19T05:31:52.431Z,86.16
2023-05-19T05:32:52.612Z,88.04
2023-05-19T05:33:52.508Z,86.23
2023-05-19T05:34:52.409Z,85.74
2023-05-19T05:35:52.408Z,86.42
2023-05-19T05:36:52.399Z,86.38
2023-05-19T05:37:52.390Z,85.30
2023-05-19T05:38:52.374Z,85.05
2023-05-19T05:39:52.386Z,86.67
2023-05-19T05:40:52.374Z,84.12
2023-05-19T05:41:52.378Z,85.02
2023-05-19T05:42:52.350Z,84.58
2023-05-19T05:43:52.359Z,84.69
2023-05-19T05:44:52.332Z,85.48
2023-05-19T05:45:53.298Z,87.49
2023-05-19T05:46:52.327Z,83.46
2023-05-19T05:47:52.400Z,86.09
2023-05-19T05:48:52.307Z,84.63
2023-05-19T05:49:53.561Z,85.51
2023-05-19T05:50:52.387Z,86.27
2023-05-19T05:52:05.117Z,82.75
2023-05-19T05:52:53.283Z,83.15
2023-05-19T05:53:52.275Z,83.94
2023-05-19T05:54:52.269Z,84.70
2023-05-19T05:55:52.258Z,84.37
2023-05-19T05:56:52.264Z,87.66
2023-05-19T05:57:52.780Z,88.68
2023-05-19T05:58:52.235Z,88.50
2023-05-19T05:59:52.224Z,84.63
2023-05-19T06:00:52.275Z,88.43
2023-05-19T06:01:52.216Z,85.04
2023-05-19T06:02:52.271Z,85.77
2023-05-19T06:03:52.261Z,87.55
2023-05-19T06:04:52.229Z,85.32
2023-05-19T06:05:52.311Z,83.85
2023-05-19T06:06:52.275Z,83.94
2023-05-19T06:07:52.267Z,83.01
2023-05-19T06:08:52.282Z,84.86
2023-05-19T06:09:52.291Z,85.06
2023-05-19T06:10:52.334Z,85.93
2023-05-19T06:11:52.327Z,82.16
2023-05-19T06:12:52.370Z,82.98
2023-05-19T06:13:52.390Z,82.75
2023-05-19T06:14:52.402Z,81.31
2023-05-19T06:15:52.499Z,85.04
2023-05-19T06:16:52.491Z,83.30
2023-05-19T06:17:52.594Z,81.33
2023-05-19T06:18:52.738Z,83.22
2023-05-19T06:19:52.672Z,86.14
2023-05-19T06:20:52.719Z,84.74
2023-05-19T06:21:52.807Z,83.61
2023-05-19T06:22:52.833Z,83.37
2023-05-19T06:23:52.896Z,82.26
2023-05-19T06:24:52.959Z,81.58
2023-05-19T06:25:53.010Z,83.24
2023-05-19T06:26:53.058Z,82.68
2023-05-19T06:27:53.102Z,80.39
2023-05-19T06:28:53.167Z,82.46
2023-05-19T06:29:53.269Z,83.43
2023-05-19T06:30:53.252Z,80.43
2023-05-19T06:31:53.364Z,81.37
2023-05-19T06:32:53.404Z,81.17
2023-05-19T06:33:53.379Z,81.12
2023-05-19T06:34:53.444Z,82.37
2023-05-19T06:35:53.486Z,83.54
2023-05-19T06:36:53.550Z,81.22
2023-05-19T06:37:53.587Z,79.87
2023-05-19T06:38:53.626Z,82.47
2023-05-19T06:39:53.680Z,79.40
2023-05-19T06:40:53.689Z,79.22
2023-05-19T06:41:53.870Z,80.76
2023-05-19T06:42:53.800Z,83.47
2023-05-19T06:43:53.829Z,81.40
2023-05-19T06:44:53.993Z,81.54
2023-05-19T06:45:53.956Z,80.63
2023-05-19T06:46:54.817Z,82.36
2023-05-19T06:47:54.114Z,81.13
2023-05-19T06:48:54.119Z,79.03
2023-05-19T06:49:54.198Z,83.66
2023-05-19T06:50:54.243Z,79.69
2023-05-19T06:51:54.321Z,79.65
2023-05-19T06:52:54.381Z,82.60
2023-05-19T06:53:55.307Z,79.02
2023-05-19T06:54:54.499Z,79.93
2023-05-19T06:55:59.894Z,79.68
2023-05-19T06:56:55.527Z,79.90
2023-05-19T06:57:54.510Z,79.90
2023-05-19T06:58:54.484Z,80.39
2023-05-19T06:59:54.467Z,80.89
2023-05-19T07:00:54.457Z,81.17
2023-05-19T07:01:54.548Z,77.47
2023-05-19T07:02:54.515Z,79.85
2023-05-19T07:03:54.520Z,77.06
2023-05-19T07:04:54.405Z,80.60
2023-05-19T07:05:54.466Z,78.77
2023-05-19T07:06:54.514Z,80.52
2023-05-19T07:07:54.571Z,80.10
2023-05-19T07:08:54.621Z,77.68
2023-05-19T07:09:54.680Z,78.46
2023-05-19T07:10:54.721Z,78.59
2023-05-19T07:11:54.778Z,77.80
2023-05-19T07:12:54.838Z,75.95
2023-05-19T07:13:54.895Z,77.59
2023-05-19T07:14:54.958Z,77.90
2023-05-19T07:15:55.035Z,77.99
2023-05-19T07:16:55.119Z,77.60
2023-05-19T07:17:55.131Z,78.02
2023-05-19T07:18:55.160Z,78.19
2023-05-19T07:19:55.202Z,75.90
2023-05-19T07:20:55.258Z,75.05
2023-05-19T07:21:55.313Z,73.97
2023-05-19T07:22:55.367Z,74.35
2023-05-19T07:23:55.409Z,75.51
2023-05-19T07:24:55.592Z,74.64
2023-05-19T07:25:55.518Z,76.81
2023-05-19T07:26:55.566Z,76.13
2023-05-19T07:27:55.721Z,73.94
2023-05-19T07:28:55.680Z,75.48
2023-05-19T07:29:55.724Z,76.03
2023-05-19T07:30:55.780Z,75.72
2023-05-19T07:31:55.879Z,74.31
2023-05-19T07:32:55.921Z,74.86
2023-05-19T07:33:55.936Z,72.36
2023-05-19T07:34:56.001Z,74.22
2023-05-19T07:35:56.039Z,75.59
2023-05-19T07:36:56.076Z,75.73
2023-05-19T07:37:56.129Z,74.32
2023-05-19T07:38:56.338Z,77.37
2023-05-19T07:39:56.231Z,74.31
2023-05-19T07:40:56.278Z,75.59
2023-05-19T07:41:56.334Z,76.50
2023-05-19T07:42:56.376Z,76.55
2023-05-19T07:43:56.421Z,79.46
2023-05-19T07:44:56.468Z,77.28
2023-05-19T07:45:56.643Z,71.51
2023-05-19T07:46:56.565Z,71.96
2023-05-19T07:47:56.678Z,77.35
2023-05-19T07:48:56.654Z,74.35
2023-05-19T07:49:56.716Z,74.59
2023-05-19T07:50:56.742Z,74.58
2023-05-19T07:51:56.790Z,74.99
2023-05-19T07:52:56.840Z,73.37
2023-05-19T07:53:56.878Z,74.44
2023-05-19T07:54:56.916Z,73.46
2023-05-19T07:55:58.537Z,73.20
2023-05-19T07:56:57.001Z,73.73
2023-05-19T07:57:57.071Z,73.84
2023-05-19T07:58:57.098Z,69.01
2023-05-19T07:59:57.132Z,72.90
2023-05-19T08:00:57.177Z,71.46
2023-05-19T08:01:57.211Z,72.11
2023-05-19T08:02:57.412Z,67.47
2023-05-19T08:03:57.421Z,71.08
2023-05-19T08:04:57.377Z,71.02
2023-05-19T08:05:57.378Z,71.15
2023-05-19T08:06:57.536Z,69.32
2023-05-19T08:07:57.517Z,70.91
2023-05-19T08:08:57.500Z,70.87
2023-05-19T08:09:57.538Z,74.17
2023-05-19T08:10:57.559Z,71.48
2023-05-19T08:11:57.615Z,68.96
2023-05-19T08:12:57.664Z,69.10
2023-05-19T08:13:57.696Z,69.49
2023-05-19T08:15:00.994Z,67.96
2023-05-19T08:15:57.743Z,76.66
2023-05-19T08:16:57.707Z,74.09
2023-05-19T08:17:57.731Z,72.13
2023-05-19T08:18:57.743Z,73.50
2023-05-19T08:19:58.328Z,69.96
2023-05-19T08:20:57.676Z,71.63
2023-05-19T08:21:57.654Z,70.11
2023-05-19T08:22:57.634Z,73.18
2023-05-19T08:23:57.621Z,70.89
2023-05-19T08:24:57.596Z,67.00
2023-05-19T08:25:57.597Z,67.83
2023-05-19T08:26:57.849Z,67.30
2023-05-19T08:27:57.625Z,66.67
2023-05-19T08:28:57.622Z,64.54
2023-05-19T08:29:57.526Z,66.63
2023-05-19T08:30:57.530Z,68.35
2023-05-19T08:31:57.573Z,68.20
2023-05-19T08:32:58.394Z,68.01
2023-05-19T08:33:57.460Z,69.87
2023-05-19T08:34:57.448Z,66.07
2023-05-19T08:35:57.497Z,64.40
2023-05-19T08:36:57.501Z,64.04
2023-05-19T08:37:57.407Z,66.48
2023-05-19T08:38:57.392Z,65.86
2023-05-19T08:39:57.396Z,65.18
2023-05-19T08:40:57.358Z,65.34
2023-05-19T08:41:57.344Z,65.47
2023-05-19T08:42:57.331Z,65.96
2023-05-19T08:43:57.928Z,65.92
2023-05-19T08:44:57.302Z,64.17
2023-05-19T08:45:57.354Z,66.05
2023-05-19T08:46:57.333Z,66.49
2023-05-19T08:47:57.262Z,63.38
2023-05-19T08:48:57.251Z,67.17
2023-05-19T08:49:57.333Z,65.79
2023-05-19T08:50:57.228Z,64.53
2023-05-19T08:51:57.255Z,66.10
2023-05-19T08:52:57.282Z,66.45
2023-05-19T08:53:57.327Z,64.90
2023-05-19T08:54:57.339Z,64.05
2023-05-19T08:55:57.360Z,64.38
2023-05-19T08:56:57.391Z,65.53
2023-05-19T08:57:57.418Z,66.41
2023-05-19T08:58:57.441Z,69.53
2023-05-19T08:59:57.466Z,66.82
2023-05-19T09:00:57.526Z,67.43
2023-05-19T09:01:57.516Z,68.51
2023-05-19T09:03:00.485Z,63.69
2023-05-19T09:03:58.640Z,64.00
2023-05-19T09:04:57.597Z,64.54
2023-05-19T09:05:57.499Z,65.06
2023-05-19T09:06:57.459Z,66.23
2023-05-19T09:07:57.440Z,69.41
2023-05-19T09:08:57.430Z,64.00
2023-05-19T09:09:57.413Z,64.72
2023-05-19T09:10:57.409Z,65.68
2023-05-19T09:11:58.359Z,63.76
2023-05-19T09:12:57.370Z,62.24
2023-05-19T09:13:57.342Z,62.82
2023-05-19T09:14:57.328Z,67.52
2023-05-19T09:15:57.308Z,61.30
2023-05-19T09:16:57.383Z,63.57
2023-05-19T09:17:57.337Z,64.98
2023-05-19T09:18:57.330Z,65.80
2023-05-19T09:19:57.286Z,65.95
2023-05-19T09:20:57.311Z,64.72
2023-05-19T09:21:57.331Z,65.46
2023-05-19T09:22:57.361Z,64.89
2023-05-19T09:23:57.387Z,67.63
2023-05-19T09:24:57.410Z,63.01
2023-05-19T09:25:57.546Z,65.61
2023-05-19T09:26:59.172Z,62.87
2023-05-19T09:27:57.574Z,65.47
2023-05-19T09:28:57.571Z,64.57
2023-05-19T09:29:57.592Z,62.48
2023-05-19T09:30:57.626Z,67.87
2023-05-19T09:31:57.691Z,65.57
2023-05-19T09:32:57.736Z,65.12
2023-05-19T09:33:57.704Z,62.97
2023-05-19T09:34:57.713Z,63.95
2023-05-19T09:35:58.358Z,66.07
2023-05-19T09:36:57.867Z,65.17
2023-05-19T09:37:57.772Z,62.07
2023-05-19T09:38:57.786Z,64.26
2023-05-19T09:39:57.803Z,64.34
2023-05-19T09:40:57.837Z,61.81
2023-05-19T09:41:57.863Z,65.04
2023-05-19T09:42:57.850Z,64.95
2023-05-19T09:43:57.934Z,64.29
2023-05-19T09:44:57.900Z,65.02
2023-05-19T09:45:57.920Z,65.19
2023-05-19T09:46:57.939Z,64.31
2023-05-19T09:47:57.992Z,61.52
2023-05-19T09:48:57.971Z,63.21
2023-05-19T09:49:57.986Z,61.80
2023-05-19T09:50:58.132Z,61.22
2023-05-19T09:51:58.444Z,63.35
2023-05-19T09:52:58.017Z,65.93
2023-05-19T09:53:58.045Z,65.19
2023-05-19T09:54:58.049Z,63.94
2023-05-19T09:55:58.061Z,65.03
2023-05-19T09:56:58.064Z,65.10
2023-05-19T09:57:58.066Z,63.13
2023-05-19T09:58:58.086Z,66.51
2023-05-19T09:59:58.139Z,61.62
2023-05-19T10:00:58.137Z,62.16
2023-05-19T10:01:58.167Z,63.78
2023-05-19T10:02:58.206Z,61.90
2023-05-19T10:03:58.171Z,62.27
2023-05-19T10:04:58.170Z,64.14
2023-05-19T10:05:58.184Z,62.83
2023-05-19T10:06:58.188Z,62.86
2023-05-19T10:07:58.225Z,62.55
2023-05-19T10:08:58.201Z,63.70
2023-05-19T10:09:58.942Z,65.05
2023-05-19T10:10:58.237Z,65.04
2023-05-19T10:11:58.222Z,64.31
2023-05-19T10:12:58.230Z,63.20
2023-05-19T10:13:58.275Z,63.96
2023-05-19T10:14:58.258Z,64.37
2023-05-19T10:15:59.643Z,63.03
2023-05-19T10:16:58.448Z,61.36
2023-05-19T10:17:58.337Z,65.85
2023-05-19T10:18:58.294Z,67.33
2023-05-19T10:19:58.318Z,61.17
2023-05-19T10:20:58.591Z,65.16
2023-05-19T10:21:58.330Z,62.68
2023-05-19T10:22:58.318Z,62.20
2023-05-19T10:23:58.334Z,66.54
2023-05-19T10:24:58.335Z,65.32
2023-05-19T10:25:58.347Z,63.68
2023-05-19T10:26:58.351Z,64.04
2023-05-19T10:27:58.371Z,63.15
2023-05-19T10:28:58.374Z,63.70
2023-05-19T10:29:58.391Z,62.64
2023-05-19T10:30:58.394Z,62.71
2023-05-19T10:31:58.414Z,64.13
2023-05-19T10:32:58.487Z,63.86
2023-05-19T10:33:58.407Z,61.75
2023-05-19T10:34:58.419Z,63.57
2023-05-19T10:35:58.426Z,63.18
2023-05-19T10:36:58.494Z,63.22
2023-05-19T10:37:58.446Z,63.05
2023-05-19T10:38:58.439Z,64.39
2023-05-19T10:39:58.439Z,64.45
2023-05-19T10:40:58.451Z,63.30
2023-05-19T10:41:58.451Z,64.08
2023-05-19T10:42:58.449Z,60.36
2023-05-19T10:43:58.452Z,64.28
2023-05-19T10:44:58.467Z,63.06
2023-05-19T10:45:58.453Z,63.27
2023-05-19T10:46:58.471Z,64.70
2023-05-19T10:47:58.474Z,65.15
2023-05-19T10:48:58.454Z,66.97
2023-05-19T10:49:58.440Z,62.32
2023-05-19T10:50:58.453Z,63.40
2023-05-19T10:51:58.455Z,63.78
2023-05-19T10:52:58.446Z,62.43
2023-05-19T10:53:58.437Z,63.96
2023-05-19T10:54:58.625Z,65.98
2023-05-19T10:55:58.437Z,62.16
2023-05-19T10:56:58.439Z,61.52
2023-05-19T10:57:58.447Z,62.31
2023-05-19T10:58:58.444Z,61.94
2023-05-19T10:59:58.508Z,62.24
2023-05-19T11:00:58.530Z,63.65
2023-05-19T11:01:58.495Z,62.65
2023-05-19T11:02:58.508Z,67.24
2023-05-19T11:03:58.452Z,61.89
2023-05-19T11:04:58.466Z,62.40
2023-05-19T11:05:58.420Z,64.93
2023-05-19T11:06:58.440Z,64.11
2023-05-19T11:07:58.420Z,64.16
2023-05-19T11:08:58.427Z,65.21
2023-05-19T11:09:58.406Z,61.76
2023-05-19T11:10:58.462Z,63.81
2023-05-19T11:11:58.408Z,62.05
2023-05-19T11:12:58.460Z,64.26
2023-05-19T11:13:58.395Z,60.30
2023-05-19T11:14:58.400Z,62.32
2023-05-19T11:15:58.395Z,64.82
2023-05-19T11:16:58.437Z,63.35
2023-05-19T11:17:58.399Z,61.57
2023-05-19T11:18:58.394Z,64.51
2023-05-19T11:19:58.387Z,63.92
2023-05-19T11:20:58.523Z,62.95
2023-05-19T11:21:58.385Z,65.65
2023-05-19T11:22:58.387Z,64.65
2023-05-19T11:23:58.475Z,62.11
2023-05-19T11:24:58.356Z,62.59
2023-05-19T11:25:58.413Z,62.74
2023-05-19T11:26:58.370Z,63.53
2023-05-19T11:27:58.348Z,63.88
2023-05-19T11:28:58.351Z,63.22
2023-05-19T11:29:58.359Z,62.97
2023-05-19T11:30:58.363Z,60.87
2023-05-19T11:31:58.382Z,62.66
2023-05-19T11:32:58.447Z,65.25
2023-05-19T11:33:58.367Z,63.46
2023-05-19T11:34:58.424Z,63.18
2023-05-19T11:35:58.687Z,64.67
2023-05-19T11:36:58.354Z,63.25
2023-05-19T11:37:58.909Z,62.30
2023-05-19T11:38:58.364Z,63.81
2023-05-19T11:39:58.402Z,65.38
2023-05-19T11:40:58.348Z,62.51
2023-05-19T11:41:58.362Z,64.19
2023-05-19T11:42:58.353Z,63.87
2023-05-19T11:43:58.361Z,63.32
2023-05-19T11:44:58.357Z,67.65
2023-05-19T11:45:58.387Z,64.11
2023-05-19T11:46:58.349Z,64.86
2023-05-19T11:48:02.343Z,65.13
2023-05-19T11:48:58.326Z,65.31
2023-05-19T11:49:58.305Z,66.04
2023-05-19T11:50:58.370Z,66.18
2023-05-19T11:51:58.268Z,65.99
2023-05-19T11:52:58.239Z,68.90
2023-05-19T11:53:58.284Z,65.65
2023-05-19T11:54:58.204Z,68.46
2023-05-19T11:55:58.167Z,67.17
2023-05-19T11:56:58.142Z,65.59
2023-05-19T11:58:03.930Z,65.67
2023-05-19T11:58:59.113Z,65.91
2023-05-19T11:59:58.081Z,66.48
2023-05-19T12:00:58.035Z,66.53
2023-05-19T12:01:58.002Z,66.99
2023-05-19T12:02:58.046Z,66.31
2023-05-19T12:03:58.153Z,69.12
2023-05-19T12:04:57.971Z,64.31
2023-05-19T12:05:57.935Z,69.06
2023-05-19T12:06:57.890Z,67.51
2023-05-19T12:07:57.895Z,64.41
2023-05-19T12:08:57.857Z,64.43
2023-05-19T12:09:57.813Z,65.17
2023-05-19T12:10:57.784Z,69.63
2023-05-19T12:11:57.773Z,65.03
2023-05-19T12:12:57.796Z,67.98
2023-05-19T12:13:57.744Z,65.20
2023-05-19T12:14:57.701Z,66.92
2023-05-19T12:15:57.700Z,64.92
2023-05-19T12:16:57.655Z,65.25
2023-05-19T12:17:57.746Z,63.20
2023-05-19T12:18:57.618Z,65.56
2023-05-19T12:19:57.575Z,64.95
2023-05-19T12:20:57.548Z,64.94
2023-05-19T12:21:57.512Z,64.76
2023-05-19T12:22:57.476Z,65.90
2023-05-19T12:23:57.465Z,66.50
2023-05-19T12:24:58.493Z,65.59
2023-05-19T12:25:57.419Z,65.44
2023-05-19T12:26:57.412Z,66.15
2023-05-19T12:27:58.209Z,66.19
2023-05-19T12:28:57.404Z,64.53
2023-05-19T12:29:57.396Z,67.11
2023-05-19T12:30:57.384Z,64.80
2023-05-19T12:31:57.394Z,64.76
2023-05-19T12:32:58.150Z,64.53
2023-05-19T12:33:57.397Z,65.59
2023-05-19T12:34:57.355Z,63.60
2023-05-19T12:35:57.340Z,66.46
2023-05-19T12:36:57.328Z,66.13
2023-05-19T12:37:57.335Z,68.88
2023-05-19T12:38:57.334Z,66.12
2023-05-19T12:39:57.304Z,67.98
2023-05-19T12:40:57.306Z,65.67
2023-05-19T12:41:57.323Z,67.44
2023-05-19T12:42:57.310Z,65.01
2023-05-19T12:43:57.304Z,65.36
2023-05-19T12:44:57.326Z,67.46
2023-05-19T12:45:57.423Z,64.94
2023-05-19T12:46:57.920Z,65.80
2023-05-19T12:47:57.318Z,67.21
2023-05-19T12:48:57.282Z,65.55